createdAt,value
2019-05-13T00:01:43.473Z,5.98
2019-05-13T00:04:10.829Z,6.00
2019-05-13T00:06:50.365Z,6.03
2019-05-13T00:09:06.791Z,6.02
2019-05-13T00:11:34.587Z,5.88
2019-05-13T00:14:04.485Z,5.90
2019-05-13T00:16:33.599Z,5.91
2019-05-13T00:19:00.316Z,5.75
2019-05-13T00:21:27.360Z,5.81
2019-05-13T00:23:54.636Z,5.82
2019-05-13T00:26:21.470Z,5.85
2019-05-13T00:28:48.379Z,5.81
2019-05-13T00:31:15.401Z,5.85
2019-05-13T00:33:44.408Z,5.70
2019-05-13T00:36:11.253Z,5.69
2019-05-13T00:38:38.510Z,5.64
2019-05-13T00:41:05.303Z,5.46
2019-05-13T00:43:33.824Z,5.66
2019-05-13T00:46:00.967Z,5.62
2019-05-13T00:48:29.796Z,5.73
2019-05-13T00:50:56.706Z,5.76
2019-05-13T00:53:23.811Z,5.73
2019-05-13T00:55:53.434Z,5.60
2019-05-13T00:58:20.181Z,5.44
2019-05-13T01:00:47.379Z,5.43
2019-05-13T01:03:14.295Z,5.44
2019-05-13T01:05:44.221Z,5.47
2019-05-13T01:08:10.541Z,5.41
2019-05-13T01:10:38.200Z,5.34
2019-05-13T01:13:05.203Z,5.22
2019-05-13T01:15:34.556Z,5.17
2019-05-13T01:18:00.694Z,5.15
2019-05-13T01:20:27.993Z,5.20
2019-05-13T01:22:55.293Z,5.22
2019-05-13T01:25:24.257Z,5.32
2019-05-13T01:27:53.775Z,5.31
2019-05-13T01:30:21.181Z,5.27
2019-05-13T01:32:48.057Z,5.06
2019-05-13T01:35:15.397Z,5.06
2019-05-13T01:37:45.968Z,5.22
2019-05-13T01:40:15.178Z,5.12
2019-05-13T01:42:44.333Z,5.12
2019-05-13T01:45:13.760Z,4.94
2019-05-13T01:47:44.118Z,4.83
2019-05-13T01:50:14.017Z,4.92
2019-05-13T01:52:40.422Z,5.00
2019-05-13T01:55:08.110Z,5.10
2019-05-13T01:57:35.491Z,5.04
2019-05-13T02:00:07.376Z,5.09
2019-05-13T02:02:34.169Z,5.09
2019-05-13T02:05:03.782Z,4.56
2019-05-13T02:07:30.446Z,4.49
2019-05-13T02:09:58.717Z,4.47
2019-05-13T02:12:25.816Z,4.54
2019-05-13T02:14:53.399Z,4.70
2019-05-13T02:17:20.425Z,4.78
2019-05-13T02:19:47.676Z,4.75
2019-05-13T02:22:14.826Z,4.86
2019-05-13T02:24:41.680Z,4.60
2019-05-13T02:27:08.527Z,4.76
2019-05-13T02:29:35.268Z,4.76
2019-05-13T02:32:03.220Z,4.82
2019-05-13T02:34:32.190Z,4.72
2019-05-13T02:36:59.100Z,4.71
2019-05-13T02:39:26.520Z,4.65
2019-05-13T02:41:53.663Z,4.72
2019-05-13T02:44:22.559Z,4.78
2019-05-13T02:46:52.294Z,4.74
2019-05-13T02:49:18.190Z,4.61
2019-05-13T02:51:45.163Z,4.52
2019-05-13T02:54:12.821Z,4.59
2019-05-13T02:56:42.222Z,4.65
2019-05-13T02:59:13.007Z,4.56
2019-05-13T03:01:38.146Z,4.53
2019-05-13T03:04:05.802Z,4.42
2019-05-13T03:06:33.435Z,4.38
2019-05-13T03:09:03.111Z,4.40
2019-05-13T03:11:32.885Z,4.33
2019-05-13T03:13:58.683Z,4.36
2019-05-13T03:16:42.633Z,4.40
2019-05-13T03:19:08.350Z,4.36
2019-05-13T03:21:35.520Z,4.33
2019-05-13T03:24:03.755Z,4.29
2019-05-13T03:26:32.135Z,4.26
2019-05-13T03:29:02.809Z,4.30
2019-05-13T03:31:35.235Z,4.38
2019-05-13T03:33:58.545Z,4.29
2019-05-13T03:36:26.648Z,4.30
2019-05-13T03:39:05.317Z,4.27
2019-05-13T03:41:26.388Z,4.23
2019-05-13T03:43:56.378Z,4.23
2019-05-13T03:46:25.134Z,4.21
2019-05-13T03:48:53.061Z,4.05
2019-05-13T03:51:22.449Z,3.99
2019-05-13T03:53:53.219Z,4.04
2019-05-13T03:56:18.652Z,4.19
2019-05-13T03:58:45.752Z,3.93
2019-05-13T04:01:13.580Z,3.98
2019-05-13T04:03:44.095Z,3.98
2019-05-13T04:06:13.526Z,4.08
2019-05-13T04:08:42.995Z,3.88
2019-05-13T04:11:08.540Z,3.84
2019-05-13T04:13:35.812Z,3.74
2019-05-13T04:16:04.406Z,3.73
2019-05-13T04:18:32.129Z,3.68
2019-05-13T04:21:02.757Z,3.74
2019-05-13T04:23:32.032Z,3.97
2019-05-13T04:25:58.049Z,3.98
2019-05-13T04:28:28.201Z,3.88
2019-05-13T04:30:55.174Z,3.92
2019-05-13T04:33:24.539Z,4.14
2019-05-13T04:35:52.943Z,4.04
2019-05-13T04:38:22.783Z,4.09
2019-05-13T04:40:52.649Z,4.16
2019-05-13T04:43:18.903Z,4.17
2019-05-13T04:45:46.297Z,4.06
2019-05-13T04:48:13.180Z,4.12
2019-05-13T04:50:42.917Z,4.15
2019-05-13T04:53:08.923Z,4.21
2019-05-13T04:55:35.988Z,4.16
2019-05-13T04:58:03.714Z,4.34
2019-05-13T05:01:08.870Z,4.56
2019-05-13T05:03:53.109Z,4.66
2019-05-13T05:06:33.137Z,4.40
2019-05-13T05:09:26.901Z,4.26
2019-05-13T05:12:34.471Z,4.26
2019-05-13T05:15:33.673Z,4.19
2019-05-13T05:18:56.120Z,4.09
2019-05-13T05:21:37.650Z,4.20
2019-05-13T05:24:34.112Z,4.53
2019-05-13T05:27:18.322Z,4.55
2019-05-13T05:30:11.720Z,4.57
2019-05-13T05:33:01.951Z,4.66
2019-05-13T05:35:52.198Z,4.83
2019-05-13T05:38:31.807Z,4.87
2019-05-13T05:41:01.781Z,4.90
2019-05-13T05:43:32.046Z,4.96
2019-05-13T05:46:01.943Z,5.16
2019-05-13T05:48:31.534Z,5.29
2019-05-13T05:51:01.979Z,5.36
2019-05-13T05:53:33.374Z,5.53
2019-05-13T05:56:02.775Z,5.64
2019-05-13T05:58:32.397Z,5.77
2019-05-13T06:01:02.458Z,5.96
2019-05-13T06:03:33.983Z,6.13
2019-05-13T06:06:01.889Z,6.28
2019-05-13T06:08:28.971Z,6.43
2019-05-13T06:10:56.350Z,6.65
2019-05-13T06:13:24.019Z,6.80
2019-05-13T06:15:51.375Z,6.97
2019-05-13T06:18:18.646Z,7.19
2019-05-13T06:20:45.642Z,7.37
2019-05-13T06:23:12.927Z,7.43
2019-05-13T06:25:42.736Z,7.49
2019-05-13T06:28:09.169Z,7.59
2019-05-13T06:30:36.140Z,7.73
2019-05-13T06:33:03.502Z,7.79
2019-05-13T06:35:32.338Z,7.87
2019-05-13T06:38:01.405Z,8.00
2019-05-13T06:40:28.340Z,8.10
2019-05-13T06:42:55.132Z,8.16
2019-05-13T06:45:22.273Z,8.21
2019-05-13T06:47:51.995Z,8.35
2019-05-13T06:50:18.024Z,8.47
2019-05-13T06:52:45.280Z,8.57
2019-05-13T06:55:12.286Z,8.65
2019-05-13T06:57:39.037Z,8.71
2019-05-13T07:00:07.049Z,8.80
2019-05-13T07:02:34.294Z,8.79
2019-05-13T07:05:02.369Z,8.87
2019-05-13T07:07:31.717Z,8.93
2019-05-13T07:09:58.343Z,9.03
2019-05-13T07:12:25.417Z,9.18
2019-05-13T07:14:52.221Z,9.29
2019-05-13T07:17:22.063Z,9.34
2019-05-13T07:19:47.896Z,9.40
2019-05-13T07:22:14.696Z,9.51
2019-05-13T07:24:42.015Z,9.60
2019-05-13T07:27:09.268Z,9.71
2019-05-13T07:29:36.439Z,9.83
2019-05-13T07:32:03.485Z,9.89
2019-05-13T07:34:33.462Z,9.96
2019-05-13T07:37:01.754Z,10.07
2019-05-13T07:39:28.306Z,10.16
2019-05-13T07:41:55.187Z,10.25
2019-05-13T07:44:22.412Z,10.32
2019-05-13T07:46:52.094Z,10.46
2019-05-13T07:49:18.101Z,10.51
2019-05-13T07:51:44.953Z,10.59
2019-05-13T07:54:11.937Z,10.65
2019-05-13T07:56:38.757Z,10.77
2019-05-13T07:59:05.722Z,10.85
2019-05-13T08:01:32.926Z,10.96
2019-05-13T08:04:02.184Z,11.08
2019-05-13T08:06:28.770Z,11.16
2019-05-13T08:08:55.935Z,11.23
2019-05-13T08:11:24.043Z,11.28
2019-05-13T08:13:51.921Z,11.46
2019-05-13T08:16:18.674Z,11.63
2019-05-13T08:18:45.536Z,11.73
2019-05-13T08:21:12.698Z,11.74
2019-05-13T08:23:41.733Z,11.82
2019-05-13T08:26:08.317Z,11.94
2019-05-13T08:28:35.074Z,12.09
2019-05-13T08:31:02.399Z,12.19
2019-05-13T08:33:31.905Z,12.19
2019-05-13T08:35:58.802Z,12.12
2019-05-13T08:38:26.574Z,12.30
2019-05-13T08:40:53.485Z,12.41
2019-05-13T08:43:22.572Z,12.53
2019-05-13T08:45:51.168Z,12.59
2019-05-13T08:50:45.072Z,12.72
2019-05-13T08:53:12.413Z,12.87
2019-05-13T08:55:41.789Z,12.86
2019-05-13T08:58:08.247Z,12.90
2019-05-13T09:01:02.205Z,13.03
2019-05-13T09:03:32.297Z,13.19
2019-05-13T09:05:57.994Z,13.38
2019-05-13T09:08:25.991Z,13.49
2019-05-13T09:10:56.768Z,13.67
2019-05-13T09:13:22.578Z,13.64
2019-05-13T09:15:51.647Z,13.77
2019-05-13T09:18:18.873Z,13.98
2019-05-13T09:20:45.906Z,14.16
2019-05-13T09:23:12.892Z,14.24
2019-05-13T09:25:41.544Z,14.26
2019-05-13T09:28:09.107Z,14.32
2019-05-13T09:30:36.051Z,14.51
2019-05-13T09:33:03.014Z,14.57
2019-05-13T09:35:31.565Z,14.45
2019-05-13T09:37:58.630Z,14.16
2019-05-13T09:40:25.390Z,14.26
2019-05-13T09:42:55.243Z,14.44
2019-05-13T09:45:21.659Z,14.57
2019-05-13T09:47:48.607Z,14.80
2019-05-13T09:50:28.383Z,14.97
2019-05-13T09:52:47.595Z,15.09
2019-05-13T09:55:26.333Z,15.14
2019-05-13T09:57:43.440Z,14.95
2019-05-13T10:00:12.296Z,14.96
2019-05-13T10:02:39.191Z,15.09
2019-05-13T10:05:06.535Z,15.18
2019-05-13T10:07:33.533Z,15.29
2019-05-13T10:10:01.886Z,15.43
2019-05-13T10:12:31.609Z,15.62
2019-05-13T10:14:57.735Z,15.83
2019-05-13T10:17:24.729Z,15.83
2019-05-13T10:19:52.146Z,15.54
2019-05-13T10:22:22.164Z,15.28
2019-05-13T10:24:51.976Z,15.46
2019-05-13T10:27:22.381Z,15.47
2019-05-13T10:29:51.815Z,15.39
2019-05-13T10:32:21.741Z,15.63
2019-05-13T10:34:48.242Z,15.81
2019-05-13T10:37:15.619Z,16.03
2019-05-13T10:39:42.586Z,16.17
2019-05-13T10:42:11.811Z,16.19
2019-05-13T10:44:38.034Z,15.82
2019-05-13T10:47:05.118Z,15.79
2019-05-13T10:49:33.182Z,16.03
2019-05-13T10:52:02.863Z,16.35
2019-05-13T10:54:28.962Z,16.43
2019-05-13T10:56:59.377Z,16.43
2019-05-13T10:59:24.518Z,16.49
2019-05-13T11:01:51.262Z,16.65
2019-05-13T11:04:18.211Z,16.84
2019-05-13T11:06:45.410Z,17.03
2019-05-13T11:09:42.160Z,16.89
2019-05-13T11:12:07.311Z,16.73
2019-05-13T11:14:34.267Z,16.56
2019-05-13T11:17:01.811Z,16.85
2019-05-13T11:19:34.356Z,16.98
2019-05-13T11:21:59.219Z,17.15
2019-05-13T11:24:27.002Z,17.46
2019-05-13T11:26:54.134Z,17.59
2019-05-13T11:29:22.973Z,17.53
2019-05-13T11:31:52.280Z,17.60
2019-05-13T11:34:18.483Z,17.01
2019-05-13T11:36:48.293Z,17.20
2019-05-13T11:39:15.073Z,17.32
2019-05-13T11:41:43.103Z,17.05
2019-05-13T11:44:16.165Z,17.32
2019-05-13T11:46:42.786Z,17.63
2019-05-13T11:49:08.102Z,17.57
2019-05-13T11:51:34.967Z,17.54
2019-05-13T11:54:02.561Z,17.59
2019-05-13T11:56:33.408Z,17.57
2019-05-13T11:58:58.315Z,18.01
2019-05-13T12:01:25.255Z,18.29
2019-05-13T12:03:53.036Z,18.65
2019-05-13T12:06:23.224Z,18.75
2019-05-13T12:08:52.068Z,18.88
2019-05-13T12:11:17.859Z,18.67
2019-05-13T12:13:45.219Z,18.66
2019-05-13T12:16:12.834Z,18.82
2019-05-13T12:18:43.676Z,19.03
2019-05-13T12:21:09.237Z,19.08
2019-05-13T12:23:36.042Z,18.76
2019-05-13T12:26:04.075Z,18.64
2019-05-13T12:28:32.958Z,18.27
2019-05-13T12:31:03.369Z,18.61
2019-05-13T12:33:33.167Z,18.87
2019-05-13T12:36:01.995Z,19.11
2019-05-13T12:38:32.565Z,19.57
2019-05-13T12:40:59.050Z,19.81
2019-05-13T12:43:26.071Z,19.68
2019-05-13T12:45:53.495Z,19.77
2019-05-13T12:48:22.973Z,19.66
2019-05-13T12:50:52.954Z,19.83
2019-05-13T12:53:18.595Z,19.84
2019-05-13T12:55:52.331Z,20.10
2019-05-13T12:58:14.619Z,20.32
2019-05-13T13:00:43.397Z,20.45
2019-05-13T13:03:13.242Z,20.49
2019-05-13T13:05:43.236Z,20.38
2019-05-13T13:08:24.508Z,20.18
2019-05-13T13:10:37.975Z,20.05
2019-05-13T13:13:04.946Z,20.21
2019-05-13T13:15:38.244Z,20.50
2019-05-13T13:18:03.316Z,20.49
2019-05-13T13:20:33.563Z,20.44
2019-05-13T13:22:59.103Z,19.99
2019-05-13T13:25:25.944Z,20.32
2019-05-13T13:28:10.665Z,20.96
2019-05-13T13:30:22.231Z,21.11
2019-05-13T13:32:54.209Z,20.78
2019-05-13T13:35:21.806Z,20.81
2019-05-13T13:37:48.792Z,20.89
2019-05-13T13:40:24.506Z,20.96
2019-05-13T13:42:46.990Z,21.10
2019-05-13T13:45:14.194Z,21.17
2019-05-13T13:47:45.385Z,21.02
2019-05-13T13:50:11.819Z,21.47
2019-05-13T13:52:39.321Z,21.76
2019-05-13T13:55:08.787Z,21.96
2019-05-13T13:57:35.191Z,21.81
2019-05-13T14:00:24.925Z,22.06
2019-05-13T14:02:37.023Z,21.86
2019-05-13T14:05:05.943Z,21.60
2019-05-13T14:07:37.824Z,21.54
2019-05-13T14:10:07.111Z,21.45
2019-05-13T14:12:34.012Z,21.59
2019-05-13T14:15:02.041Z,21.52
2019-05-13T14:17:31.273Z,21.28
2019-05-13T14:19:58.532Z,21.02
2019-05-13T14:22:26.016Z,20.38
2019-05-13T14:24:53.343Z,20.52
2019-05-13T14:27:22.416Z,20.64
2019-05-13T14:29:50.229Z,20.65
2019-05-13T14:32:17.795Z,20.49
2019-05-13T14:34:46.185Z,20.23
2019-05-13T14:37:13.158Z,20.43
2019-05-13T14:39:40.287Z,20.48
2019-05-13T14:42:07.415Z,20.53
2019-05-13T14:44:34.176Z,20.75
2019-05-13T14:47:03.562Z,20.66
2019-05-13T14:49:31.710Z,20.51
2019-05-13T14:52:00.755Z,20.29
2019-05-13T14:54:27.622Z,20.15
2019-05-13T14:56:54.794Z,20.05
2019-05-13T14:59:22.161Z,19.88
2019-05-13T15:01:51.699Z,20.00
2019-05-13T15:04:18.098Z,19.86
2019-05-13T15:06:45.105Z,19.83
2019-05-13T15:09:12.822Z,20.16
2019-05-13T15:11:41.920Z,20.19
2019-05-13T15:14:11.499Z,20.11
2019-05-13T15:16:37.941Z,20.18
2019-05-13T15:19:04.890Z,20.27
2019-05-13T15:21:32.183Z,20.02
2019-05-13T15:23:59.245Z,19.67
2019-05-13T15:26:26.506Z,19.91
2019-05-13T15:28:53.620Z,19.91
2019-05-13T15:31:22.081Z,19.81
2019-05-13T15:33:49.211Z,19.83
2019-05-13T15:36:15.987Z,19.76
2019-05-13T15:38:42.856Z,19.61
2019-05-13T15:41:14.684Z,19.06
2019-05-13T15:43:42.450Z,18.62
2019-05-13T15:46:09.457Z,18.19
2019-05-13T15:48:36.614Z,17.91
2019-05-13T15:51:04.087Z,17.92
2019-05-13T15:53:32.162Z,17.88
2019-05-13T15:55:59.337Z,17.80
2019-05-13T15:58:38.391Z,17.61
2019-05-13T16:00:54.896Z,17.58
2019-05-13T16:03:22.028Z,17.67
2019-05-13T16:05:51.477Z,17.60
2019-05-13T16:08:17.666Z,17.47
2019-05-13T16:10:44.753Z,17.55
2019-05-13T16:13:12.328Z,17.55
2019-05-13T16:15:41.594Z,17.31
2019-05-13T16:18:07.934Z,17.31
2019-05-13T16:20:35.478Z,17.36
2019-05-13T16:23:03.396Z,17.31
2019-05-13T16:25:31.906Z,17.22
2019-05-13T16:28:01.208Z,17.19
2019-05-13T16:30:28.102Z,17.05
2019-05-13T16:32:55.137Z,16.94
2019-05-13T16:35:22.029Z,16.90
2019-05-13T16:37:49.219Z,16.85
2019-05-13T16:40:16.361Z,16.79
2019-05-13T16:42:43.358Z,16.81
2019-05-13T16:45:12.831Z,16.84
2019-05-13T16:47:55.898Z,16.76
2019-05-13T16:50:11.490Z,16.73
2019-05-13T16:52:38.648Z,16.78
2019-05-13T16:55:06.633Z,16.72
2019-05-13T16:57:33.440Z,16.66
2019-05-13T17:00:03.597Z,16.59
2019-05-13T17:02:31.057Z,16.55
2019-05-13T17:05:01.404Z,16.54
2019-05-13T17:07:28.609Z,16.50
2019-05-13T17:09:56.027Z,16.45
2019-05-13T17:12:22.899Z,16.40
2019-05-13T17:14:52.029Z,16.31
2019-05-13T17:17:18.530Z,16.29
2019-05-13T17:19:45.715Z,16.25
2019-05-13T17:22:13.016Z,16.21
2019-05-13T17:24:42.481Z,16.21
2019-05-13T17:27:09.413Z,16.22
2019-05-13T17:29:36.188Z,16.16
2019-05-13T17:32:03.029Z,16.15
2019-05-13T17:34:31.889Z,16.11
2019-05-13T17:36:58.636Z,16.06
2019-05-13T17:39:25.665Z,16.06
2019-05-13T17:41:52.572Z,15.99
2019-05-13T17:44:22.506Z,15.91
2019-05-13T17:46:52.039Z,15.89
2019-05-13T17:49:18.652Z,15.87
2019-05-13T17:51:45.417Z,15.84
2019-05-13T17:54:12.344Z,15.74
2019-05-13T17:56:39.194Z,15.73
2019-05-13T17:59:06.008Z,15.67
2019-05-13T18:01:33.161Z,15.59
2019-05-13T18:04:02.268Z,15.55
2019-05-13T18:06:28.661Z,15.48
2019-05-13T18:08:55.444Z,15.48
2019-05-13T18:11:22.316Z,15.42
2019-05-13T18:13:51.704Z,15.39
2019-05-13T18:16:18.376Z,15.40
2019-05-13T18:18:47.560Z,15.35
2019-05-13T18:21:14.340Z,15.26
2019-05-13T18:23:41.529Z,15.23
2019-05-13T18:26:12.431Z,15.22
2019-05-13T18:28:42.009Z,15.24
2019-05-13T18:31:12.256Z,15.15
2019-05-13T18:33:39.122Z,15.10
2019-05-13T18:36:05.951Z,15.04
2019-05-13T18:38:32.797Z,14.94
2019-05-13T18:41:01.734Z,14.96
2019-05-13T18:43:28.662Z,14.94
2019-05-13T18:45:55.540Z,14.88
2019-05-13T18:48:22.668Z,14.88
2019-05-13T18:50:52.109Z,14.76
2019-05-13T18:53:18.703Z,14.67
2019-05-13T18:55:45.762Z,14.65
2019-05-13T18:58:12.621Z,14.59
2019-05-13T19:00:41.600Z,14.59
2019-05-13T19:03:08.568Z,14.60
2019-05-13T19:05:35.467Z,14.46
2019-05-13T19:08:02.856Z,14.30
2019-05-13T19:10:31.278Z,14.18
2019-05-13T19:13:01.192Z,14.18
2019-05-13T19:15:27.936Z,14.13
2019-05-13T19:17:55.062Z,14.04
2019-05-13T19:20:22.115Z,13.94
2019-05-13T19:22:51.684Z,13.91
2019-05-13T19:25:18.581Z,13.86
2019-05-13T19:27:45.800Z,13.76
2019-05-13T19:30:15.104Z,13.66
2019-05-13T19:32:41.911Z,13.61
2019-05-13T19:35:11.649Z,13.44
2019-05-13T19:37:38.688Z,13.32
2019-05-13T19:40:06.092Z,13.33
2019-05-13T19:42:33.056Z,13.27
2019-05-13T19:45:01.944Z,13.18
2019-05-13T19:47:28.950Z,13.10
2019-05-13T19:49:55.701Z,13.02
2019-05-13T19:52:22.913Z,12.99
2019-05-13T19:54:51.425Z,12.94
2019-05-13T19:57:21.100Z,12.87
2019-05-13T19:59:47.517Z,12.76
2019-05-13T20:02:14.417Z,12.54
2019-05-13T20:04:41.547Z,12.50
2019-05-13T20:07:08.958Z,12.34
2019-05-13T20:09:35.736Z,12.22
2019-05-13T20:12:04.856Z,12.17
2019-05-13T20:14:31.708Z,12.09
2019-05-13T20:17:01.723Z,11.83
2019-05-13T20:19:42.718Z,11.65
2019-05-13T20:21:58.027Z,11.72
2019-05-13T20:24:24.940Z,11.53
2019-05-13T20:26:52.293Z,11.33
2019-05-13T20:29:19.627Z,11.24
2019-05-13T20:31:46.393Z,11.22
2019-05-13T20:34:13.264Z,11.25
2019-05-13T20:36:42.066Z,11.14
2019-05-13T20:39:08.893Z,11.16
2019-05-13T20:41:36.302Z,11.12
2019-05-13T20:44:03.194Z,11.25
2019-05-13T20:46:32.540Z,10.92
2019-05-13T20:48:59.415Z,10.76
2019-05-13T20:51:26.276Z,10.73
2019-05-13T20:53:53.068Z,10.81
2019-05-13T20:56:21.441Z,10.66
2019-05-13T20:58:48.591Z,10.54
2019-05-13T21:01:15.500Z,10.13
2019-05-13T21:03:42.377Z,9.98
2019-05-13T21:06:11.582Z,10.03
2019-05-13T21:08:38.219Z,9.87
2019-05-13T21:11:05.063Z,9.80
2019-05-13T21:13:32.084Z,9.82
2019-05-13T21:16:02.047Z,9.69
2019-05-13T21:18:28.323Z,9.76
2019-05-13T21:20:55.416Z,9.72
2019-05-13T21:23:22.684Z,9.59
2019-05-13T21:25:51.054Z,9.62
2019-05-13T21:28:19.069Z,9.55
2019-05-13T21:30:46.433Z,9.34
2019-05-13T21:33:13.825Z,9.44
2019-05-13T21:35:41.931Z,9.61
2019-05-13T21:38:11.328Z,9.66
2019-05-13T21:40:38.760Z,9.68
2019-05-13T21:43:06.108Z,9.72
2019-05-13T21:45:32.961Z,9.69
2019-05-13T21:48:01.706Z,9.69
2019-05-13T21:50:34.155Z,9.53
2019-05-13T21:52:57.640Z,9.55
2019-05-13T21:55:25.021Z,9.53
2019-05-13T21:57:53.065Z,9.45
2019-05-13T22:00:25.296Z,9.42
2019-05-13T22:02:52.434Z,9.03
2019-05-13T22:05:19.192Z,8.68
2019-05-13T22:07:46.215Z,8.38
2019-05-13T22:10:13.464Z,8.25
2019-05-13T22:12:41.504Z,8.07
2019-05-13T22:15:09.433Z,8.06
2019-05-13T22:17:36.275Z,8.04
2019-05-13T22:20:07.317Z,8.33
2019-05-13T22:22:34.276Z,8.53
2019-05-13T22:25:02.059Z,8.53
2019-05-13T22:27:29.009Z,8.14
2019-05-13T22:29:55.911Z,7.81
2019-05-13T22:32:22.843Z,7.73
2019-05-13T22:34:51.192Z,7.74
2019-05-13T22:37:18.771Z,7.78
2019-05-13T22:39:46.445Z,7.84
2019-05-13T22:42:13.410Z,7.70
2019-05-13T22:44:41.726Z,7.62
2019-05-13T22:47:13.005Z,7.70
2019-05-13T22:49:37.917Z,7.79
2019-05-13T22:52:04.717Z,7.83
2019-05-13T22:54:31.941Z,7.46
2019-05-13T22:56:59.195Z,7.42
2019-05-13T22:59:26.217Z,7.37
2019-05-13T23:01:53.141Z,7.58
2019-05-13T23:04:19.988Z,7.39
2019-05-13T23:06:47.099Z,7.27
2019-05-13T23:09:13.877Z,7.17
2019-05-13T23:11:41.791Z,7.34
2019-05-13T23:14:10.888Z,7.12
2019-05-13T23:16:37.520Z,7.29
2019-05-13T23:19:04.404Z,7.17
2019-05-13T23:21:31.823Z,7.21
2019-05-13T23:23:59.004Z,7.35
2019-05-13T23:26:26.139Z,7.13
2019-05-13T23:28:53.339Z,6.97
2019-05-13T23:31:20.080Z,6.78
2019-05-13T23:33:46.973Z,6.80
2019-05-13T23:36:13.816Z,6.86
2019-05-13T23:38:41.416Z,6.81
2019-05-13T23:41:08.474Z,6.93
2019-05-13T23:43:35.583Z,6.93
2019-05-13T23:46:02.540Z,7.14
2019-05-13T23:48:31.874Z,7.06
2019-05-13T23:50:58.794Z,6.82
2019-05-13T23:53:26.148Z,6.70
2019-05-13T23:55:53.015Z,6.52
2019-05-13T23:58:21.683Z,6.55
